createdAt,value
2019-04-20T00:00:23.277Z,13.50
2019-04-20T00:02:55.488Z,13.50
2019-04-20T00:05:25.159Z,13.60
2019-04-20T00:07:55.794Z,13.60
2019-04-20T00:10:28.821Z,13.60
2019-04-20T00:13:09.196Z,13.60
2019-04-20T00:15:28.286Z,13.50
2019-04-20T00:18:01.867Z,13.50
2019-04-20T00:20:32.331Z,13.50
2019-04-20T00:23:19.861Z,13.30
2019-04-20T00:25:54.598Z,13.30
2019-04-20T00:28:35.176Z,13.30
2019-04-20T00:31:07.267Z,13.10
2019-04-20T00:33:30.896Z,13.10
2019-04-20T00:35:51.059Z,13.00
2019-04-20T00:38:21.521Z,13.10
2019-04-20T00:40:59.436Z,13.10
2019-04-20T00:43:28.305Z,13.00
2019-04-20T00:46:04.853Z,13.20
2019-04-20T00:48:35.279Z,13.30
2019-04-20T00:51:19.634Z,13.40
2019-04-20T00:53:34.181Z,13.20
2019-04-20T00:55:59.150Z,13.10
2019-04-20T00:58:37.125Z,13.10
2019-04-20T01:01:23.670Z,13.10
2019-04-20T01:03:47.396Z,13.00
2019-04-20T01:06:22.220Z,13.10
2019-04-20T01:08:42.255Z,13.20
2019-04-20T01:11:12.344Z,13.00
2019-04-20T01:13:48.703Z,13.10
2019-04-20T01:16:25.508Z,13.00
2019-04-20T01:18:47.075Z,12.90
2019-04-20T01:21:20.298Z,12.80
2019-04-20T01:23:53.309Z,12.70
2019-04-20T01:26:20.609Z,12.80
2019-04-20T01:29:03.941Z,12.80
2019-04-20T01:31:29.287Z,12.90
2019-04-20T01:33:58.947Z,12.80
2019-04-20T01:36:40.612Z,12.80
2019-04-20T01:39:05.485Z,12.90
2019-04-20T01:41:24.431Z,12.90
2019-04-20T01:43:54.387Z,12.60
2019-04-20T01:46:26.695Z,12.60
2019-04-20T01:48:58.254Z,12.50
2019-04-20T01:51:30.675Z,12.50
2019-04-20T01:54:18.810Z,12.40
2019-04-20T01:56:43.424Z,12.30
2019-04-20T01:59:19.961Z,12.10
2019-04-20T02:01:55.652Z,12.10
2019-04-20T02:04:27.948Z,12.10
2019-04-20T02:06:57.926Z,12.00
2019-04-20T02:09:26.417Z,12.00
2019-04-20T02:11:55.714Z,12.00
2019-04-20T02:14:34.178Z,11.90
2019-04-20T02:17:08.621Z,11.90
2019-04-20T02:19:43.107Z,11.90
2019-04-20T02:22:13.584Z,12.00
2019-04-20T02:24:30.198Z,11.90
2019-04-20T02:26:59.909Z,11.80
2019-04-20T02:29:50.714Z,11.80
2019-04-20T02:32:45.651Z,11.70
2019-04-20T02:35:01.043Z,11.70
2019-04-20T02:38:03.219Z,11.70
2019-04-20T02:47:45.696Z,11.60
2019-04-20T02:50:19.184Z,11.50
2019-04-20T02:55:26.701Z,11.40
2019-04-20T02:57:53.049Z,11.40
2019-04-20T03:02:35.948Z,11.30
2019-04-20T03:05:06.672Z,11.20
2019-04-20T03:07:34.331Z,11.30
2019-04-20T03:10:14.934Z,11.30
2019-04-20T03:12:42.850Z,11.20
2019-04-20T03:15:13.903Z,11.00
2019-04-20T03:17:50.777Z,10.90
2019-04-20T03:20:24.204Z,10.90
2019-04-20T03:23:11.594Z,11.00
2019-04-20T03:25:45.458Z,11.00
2019-04-20T03:28:13.113Z,11.00
2019-04-20T03:33:30.942Z,10.80
2019-04-20T03:36:06.103Z,10.80
2019-04-20T03:38:19.820Z,10.70
2019-04-20T03:40:46.688Z,10.70
2019-04-20T03:43:03.740Z,10.70
2019-04-20T03:45:43.670Z,10.70
2019-04-20T03:48:16.099Z,10.70
2019-04-20T03:50:57.741Z,10.80
2019-04-20T03:53:27.847Z,10.90
2019-04-20T03:56:26.825Z,10.80
2019-04-20T03:58:47.227Z,10.80
2019-04-20T04:01:37.460Z,10.80
2019-04-20T04:03:59.230Z,10.70
2019-04-20T04:06:23.603Z,10.60
2019-04-20T04:08:58.630Z,10.50
2019-04-20T04:11:34.076Z,10.50
2019-04-20T04:13:43.856Z,10.50
2019-04-20T04:16:16.800Z,10.50
2019-04-20T04:18:49.188Z,10.40
2019-04-20T04:21:21.740Z,10.40
2019-04-20T04:24:02.233Z,10.50
2019-04-20T04:26:34.362Z,10.40
2019-04-20T04:29:13.708Z,10.40
2019-04-20T04:31:39.077Z,10.50
2019-04-20T04:34:09.341Z,10.50
2019-04-20T04:36:44.559Z,10.60
2019-04-20T04:39:15.440Z,10.50
2019-04-20T04:41:43.580Z,10.40
2019-04-20T04:44:10.980Z,10.40
2019-04-20T04:46:26.892Z,10.30
2019-04-20T04:49:06.854Z,10.30
2019-04-20T04:51:38.502Z,10.40
2019-04-20T04:54:12.726Z,10.40
2019-04-20T04:56:30.814Z,10.40
2019-04-20T04:59:00.840Z,10.50
2019-04-20T05:01:32.729Z,10.60
2019-04-20T05:04:22.850Z,10.60
2019-04-20T05:06:48.091Z,10.60
2019-04-20T05:09:09.075Z,10.60
2019-04-20T05:11:36.649Z,10.60
2019-04-20T05:14:12.148Z,10.70
2019-04-20T05:16:51.036Z,10.50
2019-04-20T05:19:29.892Z,10.60
2019-04-20T05:22:11.938Z,10.60
2019-04-20T05:24:40.345Z,10.70
2019-04-20T05:27:32.056Z,10.60
2019-04-20T05:29:42.818Z,10.70
2019-04-20T05:32:17.023Z,11.00
2019-04-20T05:35:06.712Z,11.00
2019-04-20T05:37:41.271Z,11.20
2019-04-20T05:40:10.789Z,11.20
2019-04-20T05:42:42.904Z,11.10
2019-04-20T05:45:11.296Z,11.20
2019-04-20T05:47:40.095Z,11.40
2019-04-20T05:50:04.967Z,11.30
2019-04-20T05:52:53.918Z,11.40
2019-04-20T05:55:15.962Z,11.70
2019-04-20T05:57:51.018Z,11.90
2019-04-20T06:00:24.679Z,12.00
2019-04-20T06:02:49.768Z,12.10
2019-04-20T06:05:23.955Z,12.20
2019-04-20T06:07:50.595Z,12.30
2019-04-20T06:10:27.651Z,12.60
2019-04-20T06:12:52.989Z,12.90
2019-04-20T06:15:46.666Z,13.20
2019-04-20T06:18:23.180Z,13.20
2019-04-20T06:21:02.271Z,13.30
2019-04-20T06:23:53.465Z,13.50
2019-04-20T06:26:30.135Z,13.70
2019-04-20T06:28:38.817Z,13.90
2019-04-20T06:31:23.945Z,14.40
2019-04-20T06:34:25.644Z,14.40
2019-04-20T06:36:49.924Z,14.40
2019-04-20T06:39:19.972Z,14.80
2019-04-20T06:47:04.180Z,15.80
2019-04-20T06:51:59.405Z,17.10
2019-04-20T06:54:48.504Z,17.30
2019-04-20T06:57:18.095Z,17.80
2019-04-20T06:59:47.431Z,18.10
2019-04-20T07:02:29.506Z,18.00
2019-04-20T07:05:00.170Z,17.60
2019-04-20T07:07:26.605Z,18.10
2019-04-20T07:10:06.726Z,18.40
2019-04-20T07:12:23.013Z,18.80
2019-04-20T07:14:47.459Z,19.40
2019-04-20T07:17:44.001Z,20.00
2019-04-20T07:20:01.415Z,19.80
2019-04-20T07:22:39.440Z,20.40
2019-04-20T07:25:14.273Z,20.60
2019-04-20T07:27:51.623Z,20.40
2019-04-20T07:30:16.505Z,20.90
2019-04-20T07:35:22.120Z,21.50
2019-04-20T07:42:57.701Z,21.90
2019-04-20T07:45:30.803Z,22.20
2019-04-20T07:48:09.340Z,22.30
2019-04-20T07:50:27.034Z,22.70
2019-04-20T07:52:51.180Z,23.10
2019-04-20T07:55:40.513Z,23.60
2019-04-20T07:57:58.030Z,23.80
2019-04-20T08:00:51.903Z,24.10
2019-04-20T08:03:28.402Z,23.90
2019-04-20T08:05:46.993Z,24.30
2019-04-20T08:08:27.168Z,24.20
2019-04-20T08:10:53.678Z,24.00
2019-04-20T08:13:43.078Z,23.50
2019-04-20T08:16:00.815Z,23.40
2019-04-20T08:18:32.221Z,23.50
2019-04-20T08:21:16.660Z,23.80
2019-04-20T08:23:29.890Z,24.30
2019-04-20T08:25:53.249Z,24.90
2019-04-20T08:28:23.301Z,24.20
2019-04-20T08:31:05.016Z,24.10
2019-04-20T08:33:56.859Z,23.90
2019-04-20T08:36:22.822Z,23.60
2019-04-20T08:41:19.403Z,24.30
2019-04-20T08:43:59.078Z,24.30
2019-04-20T08:46:26.472Z,24.50
2019-04-20T08:48:58.148Z,24.60
2019-04-20T08:51:25.845Z,25.10
2019-04-20T08:53:59.928Z,25.00
2019-04-20T08:56:18.541Z,24.90
2019-04-20T08:58:39.310Z,24.40
2019-04-20T09:01:14.164Z,24.30
2019-04-20T09:03:51.217Z,24.40
2019-04-20T09:06:29.562Z,24.30
2019-04-20T09:08:53.884Z,24.80
2019-04-20T09:11:31.147Z,25.70
2019-04-20T09:13:50.116Z,25.40
2019-04-20T09:16:19.884Z,25.40
2019-04-20T09:18:56.912Z,25.50
2019-04-20T09:21:30.928Z,25.80
2019-04-20T09:24:25.429Z,25.60
2019-04-20T09:26:43.236Z,25.40
2019-04-20T09:29:07.278Z,25.40
2019-04-20T09:31:43.735Z,26.00
2019-04-20T09:34:15.930Z,25.60
2019-04-20T09:36:56.364Z,25.80
2019-04-20T09:39:35.946Z,25.90
2019-04-20T09:42:01.841Z,25.80
2019-04-20T09:44:38.707Z,25.70
2019-04-20T09:47:07.324Z,25.80
2019-04-20T09:49:49.381Z,26.20
2019-04-20T09:52:22.996Z,26.60
2019-04-20T09:54:56.361Z,26.40
2019-04-20T09:57:29.473Z,26.80
2019-04-20T09:59:57.674Z,27.50
2019-04-20T10:02:18.725Z,26.90
2019-04-20T10:04:44.392Z,26.90
2019-04-20T10:07:17.978Z,26.70
2019-04-20T10:09:46.909Z,27.10
2019-04-20T10:12:17.518Z,26.60
2019-04-20T10:14:47.115Z,26.60
2019-04-20T10:17:17.922Z,26.70
2019-04-20T10:19:48.334Z,26.30
2019-04-20T10:22:18.399Z,26.60
2019-04-20T10:24:50.342Z,26.70
2019-04-20T10:27:19.332Z,26.30
2019-04-20T10:29:51.344Z,26.80
2019-04-20T10:32:21.471Z,26.80
2019-04-20T10:34:52.422Z,26.70
2019-04-20T10:37:24.026Z,26.40
2019-04-20T10:39:54.440Z,25.90
2019-04-20T10:42:24.020Z,26.30
2019-04-20T10:44:56.732Z,26.10
2019-04-20T10:47:25.278Z,26.10
2019-04-20T10:49:55.353Z,25.80
2019-04-20T10:52:26.074Z,25.40
2019-04-20T10:54:56.577Z,25.50
2019-04-20T10:57:26.098Z,25.70
2019-04-20T10:59:55.631Z,25.60
2019-04-20T11:02:25.880Z,26.10
2019-04-20T11:04:57.006Z,26.10
2019-04-20T11:07:28.320Z,25.90
2019-04-20T11:10:10.673Z,26.20
2019-04-20T11:14:56.504Z,26.10
2019-04-20T11:17:29.719Z,26.20
2019-04-20T11:19:57.249Z,25.90
2019-04-20T11:22:28.314Z,25.60
2019-04-20T11:24:58.538Z,25.40
2019-04-20T11:27:28.197Z,26.00
2019-04-20T11:29:58.723Z,26.00
2019-04-20T11:32:28.552Z,26.20
2019-04-20T11:35:01.010Z,25.70
2019-04-20T11:37:29.151Z,25.70
2019-04-20T11:39:59.073Z,26.10
2019-04-20T11:42:30.429Z,25.90
2019-04-20T11:45:00.402Z,26.10
2019-04-20T11:47:31.466Z,26.30
2019-04-20T11:50:01.748Z,26.50
2019-04-20T11:52:31.937Z,26.50
2019-04-20T11:55:04.316Z,26.00
2019-04-20T11:57:33.833Z,25.90
2019-04-20T12:00:05.471Z,26.10
2019-04-20T12:02:42.220Z,26.00
2019-04-20T12:05:26.212Z,26.00
2019-04-20T12:08:05.089Z,26.10
2019-04-20T12:10:35.056Z,26.00
2019-04-20T12:13:05.958Z,26.00
2019-04-20T12:15:38.627Z,26.00
2019-04-20T12:18:07.527Z,25.60
2019-04-20T12:20:38.936Z,26.10
2019-04-20T12:23:08.675Z,26.20
2019-04-20T12:25:40.948Z,26.20
2019-04-20T12:28:09.602Z,26.20
2019-04-20T12:30:39.724Z,25.90
2019-04-20T12:33:11.485Z,25.90
2019-04-20T12:35:42.414Z,26.10
2019-04-20T12:38:12.706Z,26.00
2019-04-20T12:40:42.262Z,25.90
2019-04-20T12:43:13.098Z,26.10
2019-04-20T12:45:44.040Z,26.50
2019-04-20T12:48:13.806Z,26.10
2019-04-20T12:50:43.818Z,26.30
2019-04-20T12:53:14.729Z,26.20
2019-04-20T12:55:44.441Z,26.10
2019-04-20T12:58:14.611Z,26.00
2019-04-20T13:00:49.917Z,26.40
2019-04-20T13:03:21.290Z,26.20
2019-04-20T13:05:52.000Z,26.20
2019-04-20T13:08:29.189Z,26.30
2019-04-20T13:11:10.817Z,26.40
2019-04-20T13:13:46.342Z,26.40
2019-04-20T13:16:18.430Z,26.40
2019-04-20T13:18:50.809Z,26.60
2019-04-20T13:21:21.015Z,26.20
2019-04-20T13:23:51.153Z,25.80
2019-04-20T13:26:20.718Z,26.40
2019-04-20T13:28:50.891Z,26.30
2019-04-20T13:31:21.871Z,26.10
2019-04-20T13:33:52.728Z,25.90
2019-04-20T13:36:22.183Z,25.90
2019-04-20T13:38:52.252Z,26.80
2019-04-20T13:41:22.092Z,25.90
2019-04-20T13:43:54.179Z,25.90
2019-04-20T13:46:22.983Z,26.00
2019-04-20T13:48:53.182Z,26.40
2019-04-20T13:51:23.022Z,26.00
2019-04-20T13:53:53.299Z,25.90
2019-04-20T13:56:25.845Z,25.90
2019-04-20T13:58:56.348Z,25.90
2019-04-20T14:01:34.726Z,26.00
2019-04-20T14:04:06.171Z,25.90
2019-04-20T14:06:37.282Z,26.30
2019-04-20T14:09:09.642Z,26.40
2019-04-20T14:11:39.583Z,26.40
2019-04-20T14:14:09.035Z,26.30
2019-04-20T14:16:39.015Z,26.70
2019-04-20T14:19:09.296Z,26.60
2019-04-20T14:21:38.854Z,26.70
2019-04-20T14:24:10.903Z,26.50
2019-04-20T14:26:41.228Z,26.80
2019-04-20T14:29:10.804Z,26.10
2019-04-20T14:31:41.800Z,26.90
2019-04-20T14:34:11.399Z,26.50
2019-04-20T14:36:41.260Z,26.60
2019-04-20T14:39:11.983Z,26.60
2019-04-20T14:41:42.335Z,28.00
2019-04-20T14:44:12.171Z,28.00
2019-04-20T14:46:42.021Z,27.30
2019-04-20T14:49:12.593Z,27.30
2019-04-20T14:51:42.129Z,27.30
2019-04-20T14:54:13.868Z,27.20
2019-04-20T14:56:45.399Z,27.90
2019-04-20T14:59:20.499Z,27.40
2019-04-20T15:01:52.481Z,27.00
2019-04-20T15:04:24.940Z,27.10
2019-04-20T15:06:53.280Z,27.50
2019-04-20T15:09:24.588Z,27.10
2019-04-20T15:11:54.751Z,26.50
2019-04-20T15:14:24.869Z,26.90
2019-04-20T15:16:54.810Z,26.60
2019-04-20T15:19:25.827Z,26.80
2019-04-20T15:22:07.418Z,27.00
2019-04-20T15:24:37.586Z,26.70
2019-04-20T15:27:07.280Z,26.50
2019-04-20T15:29:38.123Z,26.60
2019-04-20T15:32:08.555Z,26.70
2019-04-20T15:34:39.115Z,26.80
2019-04-20T15:37:10.044Z,26.70
2019-04-20T15:39:39.611Z,26.30
2019-04-20T15:42:09.680Z,26.70
2019-04-20T15:44:39.704Z,26.60
2019-04-20T15:47:09.366Z,26.40
2019-04-20T15:49:39.945Z,26.30
2019-04-20T15:52:13.557Z,26.80
2019-04-20T15:54:41.028Z,26.90
2019-04-20T15:57:16.517Z,26.60
2019-04-20T15:59:42.808Z,26.80
2019-04-20T16:02:17.632Z,26.10
2019-04-20T16:05:00.911Z,26.40
2019-04-20T16:07:37.838Z,26.70
2019-04-20T16:10:09.401Z,26.00
2019-04-20T16:12:36.676Z,26.70
2019-04-20T16:15:07.567Z,26.60
2019-04-20T16:17:41.815Z,26.60
2019-04-20T16:20:15.678Z,28.10
2019-04-20T16:22:42.626Z,27.90
2019-04-20T16:25:25.879Z,28.10
2019-04-20T16:27:55.931Z,28.20
2019-04-20T16:30:25.576Z,28.00
2019-04-20T16:32:56.505Z,27.60
2019-04-20T16:35:26.641Z,27.70
2019-04-20T16:37:56.250Z,27.70
2019-04-20T16:40:25.788Z,28.00
2019-04-20T16:42:56.358Z,27.30
2019-04-20T16:45:25.884Z,27.50
2019-04-20T16:47:55.370Z,27.30
2019-04-20T16:50:24.866Z,27.40
2019-04-20T16:52:54.968Z,27.50
2019-04-20T16:55:25.114Z,26.80
2019-04-20T16:57:55.535Z,26.80
2019-04-20T17:00:25.486Z,26.70
2019-04-20T17:02:56.255Z,26.80
2019-04-20T17:05:25.945Z,27.20
2019-04-20T17:07:58.309Z,27.10
2019-04-20T17:10:28.726Z,27.10
2019-04-20T17:12:59.802Z,26.90
2019-04-20T17:15:29.660Z,26.90
2019-04-20T17:17:59.258Z,27.30
2019-04-20T17:20:28.987Z,26.80
2019-04-20T17:22:58.856Z,26.10
2019-04-20T17:25:30.119Z,25.90
2019-04-20T17:28:17.345Z,25.80
2019-04-20T17:31:04.951Z,25.80
2019-04-20T17:33:50.536Z,25.70
2019-04-20T17:36:17.550Z,25.10
2019-04-20T17:38:47.555Z,24.30
2019-04-20T17:41:34.723Z,23.90
2019-04-20T17:44:01.473Z,23.60
2019-04-20T17:46:27.256Z,23.40
2019-04-20T17:49:07.553Z,23.30
2019-04-20T17:51:40.023Z,23.00
2019-04-20T17:54:08.899Z,23.00
2019-04-20T17:56:38.683Z,22.80
2019-04-20T17:59:08.252Z,22.70
2019-04-20T18:01:51.191Z,22.60
2019-04-20T18:04:44.440Z,22.50
2019-04-20T18:06:57.990Z,22.50
2019-04-20T18:09:38.706Z,22.30
2019-04-20T18:11:51.136Z,22.20
2019-04-20T18:14:40.247Z,22.10
2019-04-20T18:17:13.885Z,22.10
2019-04-20T18:19:38.670Z,22.00
2019-04-20T18:22:10.020Z,21.90
2019-04-20T18:25:02.615Z,21.80
2019-04-20T18:27:31.930Z,21.70
2019-04-20T18:30:01.348Z,21.60
2019-04-20T18:32:27.449Z,21.50
2019-04-20T18:35:05.349Z,21.30
2019-04-20T18:37:34.470Z,21.20
2019-04-20T18:40:11.131Z,21.20
2019-04-20T18:42:42.049Z,21.20
2019-04-20T18:45:28.060Z,21.00
2019-04-20T18:48:04.406Z,20.90
2019-04-20T18:50:22.169Z,20.80
2019-04-20T18:52:45.389Z,20.60
2019-04-20T18:55:22.881Z,20.50
2019-04-20T18:57:46.897Z,20.50
2019-04-20T19:00:26.063Z,20.30
2019-04-20T19:02:52.407Z,20.30
2019-04-20T19:05:21.982Z,20.00
2019-04-20T19:07:59.985Z,19.90
2019-04-20T19:10:30.867Z,19.80
2019-04-20T19:13:01.579Z,19.70
2019-04-20T19:15:51.170Z,19.80
2019-04-20T19:18:23.797Z,19.70
2019-04-20T19:20:45.541Z,19.70
2019-04-20T19:23:15.044Z,19.80
2019-04-20T19:25:45.782Z,19.70
2019-04-20T19:28:22.737Z,19.70
2019-04-20T19:30:56.294Z,19.50
2019-04-20T19:33:33.253Z,19.50
2019-04-20T19:35:58.101Z,19.40
2019-04-20T19:38:29.518Z,19.20
2019-04-20T19:41:01.973Z,19.10
2019-04-20T19:43:31.685Z,19.10
2019-04-20T19:46:35.185Z,19.00
2019-04-20T19:48:43.260Z,18.80
2019-04-20T19:51:27.187Z,18.80
2019-04-20T19:53:52.854Z,18.70
2019-04-20T19:56:22.558Z,18.70
2019-04-20T19:58:53.713Z,18.60
2019-04-20T20:01:09.398Z,18.30
2019-04-20T20:03:39.568Z,18.20
2019-04-20T20:06:18.667Z,18.20
2019-04-20T20:08:43.472Z,18.20
2019-04-20T20:11:18.432Z,18.30
2019-04-20T20:13:49.600Z,18.30
2019-04-20T20:16:23.510Z,18.20
2019-04-20T20:18:58.616Z,18.20
2019-04-20T20:21:31.279Z,18.10
2019-04-20T20:23:48.201Z,18.00
2019-04-20T20:26:23.146Z,17.90
2019-04-20T20:28:57.736Z,17.80
2019-04-20T20:31:29.793Z,17.60
2019-04-20T20:34:07.351Z,17.60
2019-04-20T20:36:38.335Z,17.50
2019-04-20T20:39:07.045Z,17.40
2019-04-20T20:41:31.780Z,17.40
2019-04-20T20:44:06.927Z,17.40
2019-04-20T20:46:37.930Z,17.50
2019-04-20T20:49:16.554Z,17.50
2019-04-20T20:52:08.357Z,17.40
2019-04-20T20:54:15.832Z,17.40
2019-04-20T20:56:46.763Z,17.30
2019-04-20T20:59:13.995Z,17.30
2019-04-20T21:01:47.973Z,17.30
2019-04-20T21:04:09.802Z,17.20
2019-04-20T21:06:40.283Z,17.10
2019-04-20T21:09:10.381Z,17.10
2019-04-20T21:11:42.282Z,16.90
2019-04-20T21:14:21.037Z,16.90
2019-04-20T21:16:53.475Z,16.90
2019-04-20T21:19:28.578Z,16.80
2019-04-20T21:21:57.111Z,16.70
2019-04-20T21:24:26.793Z,16.60
2019-04-20T21:27:00.678Z,16.60
2019-04-20T21:29:35.881Z,16.60
2019-04-20T21:32:05.140Z,16.60
2019-04-20T21:34:31.216Z,16.60
2019-04-20T21:37:03.477Z,16.50
2019-04-20T21:39:40.981Z,16.50
2019-04-20T21:42:10.330Z,16.40
2019-04-20T21:44:38.807Z,16.30
2019-04-20T21:47:06.862Z,16.20
2019-04-20T21:49:49.715Z,16.20
2019-04-20T21:52:19.334Z,16.20
2019-04-20T21:54:40.100Z,16.10
2019-04-20T21:57:11.541Z,16.10
2019-04-20T21:59:44.603Z,16.00
2019-04-20T22:02:19.470Z,15.90
2019-04-20T22:04:43.163Z,15.80
2019-04-20T22:07:12.617Z,15.80
2019-04-20T22:09:46.734Z,15.80
2019-04-20T22:12:13.960Z,15.70
2019-04-20T22:14:43.967Z,15.60
2019-04-20T22:17:20.630Z,15.40
2019-04-20T22:19:58.629Z,15.50
2019-04-20T22:22:34.904Z,15.50
2019-04-20T22:25:03.829Z,15.60
2019-04-20T22:27:22.420Z,15.50
2019-04-20T22:29:50.210Z,15.40
2019-04-20T22:32:20.809Z,15.30
2019-04-20T22:34:57.067Z,15.30
2019-04-20T22:37:28.310Z,15.20
2019-04-20T22:39:56.637Z,15.20
2019-04-20T22:42:32.499Z,15.30
2019-04-20T22:45:03.562Z,15.20
2019-04-20T22:47:31.860Z,15.10
2019-04-20T22:50:20.364Z,15.00
2019-04-20T22:52:44.329Z,15.00
2019-04-20T22:55:31.233Z,15.00
2019-04-20T22:57:52.394Z,15.00
2019-04-20T23:00:14.550Z,14.90
2019-04-20T23:02:42.720Z,14.80
2019-04-20T23:05:13.154Z,14.70
2019-04-20T23:07:42.634Z,14.60
2019-04-20T23:10:13.228Z,14.70
2019-04-20T23:12:46.907Z,14.60
2019-04-20T23:15:16.350Z,14.60
2019-04-20T23:17:50.080Z,14.50
2019-04-20T23:20:25.317Z,14.50
2019-04-20T23:22:51.375Z,14.50
2019-04-20T23:25:20.998Z,14.30
2019-04-20T23:27:57.581Z,14.20
2019-04-20T23:30:28.290Z,14.10
2019-04-20T23:32:53.910Z,14.10
2019-04-20T23:35:26.259Z,14.10
2019-04-20T23:38:01.570Z,14.00
2019-04-20T23:40:25.752Z,14.10
2019-04-20T23:42:57.990Z,13.80
2019-04-20T23:45:37.018Z,13.80
2019-04-20T23:48:06.764Z,13.70
2019-04-20T23:50:50.468Z,13.80
2019-04-20T23:53:25.739Z,13.70
2019-04-20T23:55:39.365Z,13.70
2019-04-20T23:58:11.202Z,13.60
